Time;durP1;ratioP1;P1;durP2;ratioP2;P2;SDS_P1;SDS_P2;PMS_P1;PMS_P2;Temp;Humidity;BMP_temperature;BMP_pressure;BME280_temperature;BME280_humidity;BME280_pressure;Samples;Min_cycle;Max_cycle;Signal;HPM_P1;HPM_P2
2021/12/29 00:01:27;;;;;;;10.40;3.75;;;;;;;;;;5091168;28;20035;-58
2021/12/29 00:03:54;;;;;;;8.82;3.63;;;;;;;;;;5092551;28;20067;-59
2021/12/29 00:06:20;;;;;;;10.00;3.50;;;;;;;;;;5092209;28;20040;-60
2021/12/29 00:08:46;;;;;;;8.32;3.38;;;;;;;;;;5091806;28;20044;-58
2021/12/29 00:11:13;;;;;;;7.50;3.25;;;;;;;;;;5093226;28;20089;-58
2021/12/29 00:13:39;;;;;;;11.77;3.90;;;;;;;;;;5093272;28;20071;-57
2021/12/29 00:16:05;;;;;;;10.45;3.70;;;;;;;;;;5093251;28;20081;-57
2021/12/29 00:18:32;;;;;;;10.98;3.97;;;;;;;;;;5093154;28;20056;-58
2021/12/29 00:20:59;;;;;;;10.40;4.18;;;;;;;;;;5091576;28;20036;-60
2021/12/29 00:23:25;;;;;;;16.58;4.53;;;;;;;;;;5093112;28;20558;-57
2021/12/29 00:25:52;;;;;;;12.38;4.13;;;;;;;;;;5092880;28;20118;-61
2021/12/29 00:28:18;;;;;;;13.18;4.78;;;;;;;;;;5091620;28;20047;-57
2021/12/29 00:30:44;;;;;;;18.55;4.70;;;;;;;;;;5092442;28;20040;-59
2021/12/29 00:33:10;;;;;;;29.30;5.63;;;;;;;;;;5092166;28;20032;-59
2021/12/29 00:35:38;;;;;;;17.27;5.07;;;;;;;;;;5092824;28;20051;-59
2021/12/29 00:38:06;;;;;;;29.85;6.03;;;;;;;;;;5093592;28;20074;-58
2021/12/29 00:40:33;;;;;;;23.27;6.00;;;;;;;;;;5091579;28;20073;-57
2021/12/29 00:42:59;;;;;;;42.63;6.38;;;;;;;;;;5093222;28;20063;-59
2021/12/29 00:45:25;;;;;;;36.90;6.10;;;;;;;;;;5091845;28;20119;-58
2021/12/29 00:47:51;;;;;;;43.17;6.63;;;;;;;;;;5092377;28;20401;-59
2021/12/29 00:50:18;;;;;;;44.60;6.60;;;;;;;;;;5088971;28;20036;-58
2021/12/29 00:52:45;;;;;;;50.92;6.78;;;;;;;;;;5091711;28;20128;-59
2021/12/29 00:55:12;;;;;;;36.33;6.45;;;;;;;;;;5087210;28;20028;-58
2021/12/29 00:57:38;;;;;;;76.22;8.07;;;;;;;;;;5088291;28;20040;-59
2021/12/29 01:00:06;;;;;;;48.72;6.80;;;;;;;;;;5077732;28;20039;-59
2021/12/29 01:02:32;;;;;;;57.90;7.25;;;;;;;;;;5089150;28;20078;-59
2021/12/29 01:04:58;;;;;;;48.42;7.35;;;;;;;;;;5090589;28;20054;-60
2021/12/29 01:07:24;;;;;;;53.90;7.25;;;;;;;;;;5092604;28;20563;-58
2021/12/29 01:09:50;;;;;;;53.65;7.78;;;;;;;;;;5091447;28;20486;-59
2021/12/29 01:12:16;;;;;;;84.45;8.40;;;;;;;;;;5091683;28;20036;-61
2021/12/29 01:14:51;;;;;;;70.40;7.60;;;;;;;;;;5089949;28;20123;-59
2021/12/29 01:17:17;;;;;;;46.35;7.57;;;;;;;;;;5091809;28;20082;-60
2021/12/29 01:19:43;;;;;;;41.25;7.63;;;;;;;;;;5092485;28;20086;-58
2021/12/29 01:22:10;;;;;;;53.42;7.85;;;;;;;;;;5091636;28;20096;-57
2021/12/29 01:24:37;;;;;;;40.25;7.28;;;;;;;;;;5090995;28;20041;-57
2021/12/29 01:27:03;;;;;;;53.42;7.95;;;;;;;;;;5090926;28;20086;-57
2021/12/29 01:29:30;;;;;;;38.38;7.63;;;;;;;;;;5089696;28;20039;-59
2021/12/29 01:31:57;;;;;;;38.35;7.05;;;;;;;;;;5091875;28;20371;-59
2021/12/29 01:34:23;;;;;;;43.70;7.68;;;;;;;;;;5089801;28;20118;-58
2021/12/29 01:36:49;;;;;;;43.85;7.50;;;;;;;;;;5091665;28;20074;-59
2021/12/29 01:39:16;;;;;;;31.80;6.10;;;;;;;;;;5091008;28;20071;-59
2021/12/29 01:41:42;;;;;;;24.40;5.28;;;;;;;;;;5120852;27;20046;-58
2021/12/29 01:44:10;;;;;;;27.50;5.78;;;;;;;;;;5091181;28;20043;-57
2021/12/29 01:46:36;;;;;;;27.27;5.40;;;;;;;;;;5090259;28;20040;-58
2021/12/29 01:49:03;;;;;;;35.95;6.30;;;;;;;;;;5091907;28;20505;-59
2021/12/29 01:51:30;;;;;;;25.40;5.90;;;;;;;;;;5091145;28;20531;-58
2021/12/29 01:54:34;;;;;;;28.55;5.93;;;;;;;;;;5090462;28;20080;-59
2021/12/29 01:56:48;;;;;;;31.17;6.10;;;;;;;;;;5085391;28;20534;-58
2021/12/29 01:59:15;;;;;;;27.85;6.07;;;;;;;;;;5089813;28;20174;-58
2021/12/29 02:01:41;;;;;;;36.22;7.35;;;;;;;;;;5121429;27;20046;-60
2021/12/29 02:04:07;;;;;;;35.92;7.50;;;;;;;;;;5092107;28;20047;-61
2021/12/29 02:06:33;;;;;;;31.98;7.18;;;;;;;;;;5088623;28;20043;-59
2021/12/29 02:08:59;;;;;;;40.95;8.52;;;;;;;;;;5091137;28;20047;-59
2021/12/29 02:11:30;;;;;;;55.95;10.52;;;;;;;;;;5091095;28;20040;-58
2021/12/29 02:14:05;;;;;;;34.50;9.35;;;;;;;;;;5088641;28;20039;-59
2021/12/29 02:16:31;;;;;;;47.72;9.50;;;;;;;;;;5091019;28;20068;-59
2021/12/29 02:18:58;;;;;;;33.38;8.48;;;;;;;;;;5090714;28;20090;-58
2021/12/29 02:21:26;;;;;;;37.55;10.10;;;;;;;;;;5091106;28;20054;-59
2021/12/29 02:24:16;;;;;;;39.75;9.77;;;;;;;;;;5091254;28;20390;-58
2021/12/29 02:26:41;;;;;;;36.13;9.07;;;;;;;;;;5091283;28;20186;-58
2021/12/29 02:29:11;;;;;;;35.95;9.55;;;;;;;;;;5090609;28;20044;-59
2021/12/29 02:31:37;;;;;;;28.08;9.80;;;;;;;;;;5090346;28;20040;-57
2021/12/29 02:34:04;;;;;;;39.40;9.55;;;;;;;;;;5091848;28;20093;-60
2021/12/29 02:36:31;;;;;;;30.60;10.02;;;;;;;;;;5090855;28;20157;-59
2021/12/29 02:38:57;;;;;;;35.45;10.20;;;;;;;;;;5090674;28;20040;-57
2021/12/29 02:41:24;;;;;;;32.65;10.55;;;;;;;;;;5090476;28;20071;-61
2021/12/29 02:43:58;;;;;;;31.38;10.05;;;;;;;;;;5090283;28;20104;-61
2021/12/29 02:46:24;;;;;;;33.17;10.60;;;;;;;;;;5090472;28;20051;-61
2021/12/29 02:48:59;;;;;;;40.63;11.13;;;;;;;;;;5090004;28;20047;-59
2021/12/29 02:51:25;;;;;;;35.65;11.43;;;;;;;;;;5090462;28;20119;-59
2021/12/29 02:53:51;;;;;;;31.60;11.13;;;;;;;;;;5089068;28;20101;-59
2021/12/29 02:56:17;;;;;;;23.52;10.90;;;;;;;;;;5080155;28;20070;-59
2021/12/29 02:58:43;;;;;;;27.25;11.27;;;;;;;;;;5083232;28;20141;-58
2021/12/29 03:01:11;;;;;;;29.23;11.50;;;;;;;;;;5077310;28;20067;-58
2021/12/29 03:03:38;;;;;;;28.88;11.25;;;;;;;;;;5090341;28;20028;-57
2021/12/29 03:06:05;;;;;;;28.95;11.63;;;;;;;;;;5084520;28;21243;-57
2021/12/29 03:08:31;;;;;;;29.38;11.90;;;;;;;;;;5089650;28;20490;-59
2021/12/29 03:10:57;;;;;;;29.02;11.80;;;;;;;;;;5089393;28;20040;-58
2021/12/29 03:13:24;;;;;;;26.25;10.98;;;;;;;;;;5090942;28;20540;-58
2021/12/29 03:15:51;;;;;;;24.15;11.10;;;;;;;;;;5086901;28;20505;-59
2021/12/29 03:18:17;;;;;;;18.45;8.65;;;;;;;;;;5089092;28;20051;-57
2021/12/29 03:20:43;;;;;;;22.77;9.18;;;;;;;;;;5089498;28;20047;-61
2021/12/29 03:23:09;;;;;;;22.23;9.10;;;;;;;;;;5089671;28;20039;-57
2021/12/29 03:25:36;;;;;;;19.60;8.10;;;;;;;;;;5088782;28;20119;-57
2021/12/29 03:28:02;;;;;;;18.98;8.63;;;;;;;;;;5089614;28;20036;-58
2021/12/29 03:30:29;;;;;;;25.17;9.23;;;;;;;;;;5089142;28;20131;-59
2021/12/29 03:33:05;;;;;;;17.75;7.97;;;;;;;;;;5087705;28;20032;-59
2021/12/29 03:35:35;;;;;;;25.63;9.43;;;;;;;;;;5088003;28;20055;-59
2021/12/29 03:38:03;;;;;;;19.13;8.45;;;;;;;;;;5088771;28;20043;-58
2021/12/29 03:40:29;;;;;;;25.17;8.05;;;;;;;;;;5089173;28;20040;-59
2021/12/29 03:42:56;;;;;;;18.30;7.88;;;;;;;;;;5089159;28;20410;-60
2021/12/29 03:45:22;;;;;;;29.55;9.15;;;;;;;;;;5091247;28;20512;-59
2021/12/29 03:47:48;;;;;;;19.77;7.97;;;;;;;;;;5088325;28;20032;-57
2021/12/29 03:50:14;;;;;;;21.88;9.15;;;;;;;;;;5089344;28;20074;-60
2021/12/29 03:52:40;;;;;;;21.98;8.73;;;;;;;;;;5089824;28;20090;-60
2021/12/29 03:55:07;;;;;;;24.90;9.40;;;;;;;;;;5089768;28;20041;-58
2021/12/29 03:57:33;;;;;;;30.88;9.52;;;;;;;;;;5087474;28;20475;-59
2021/12/29 03:59:59;;;;;;;29.58;9.32;;;;;;;;;;5088986;28;20391;-59
2021/12/29 04:02:25;;;;;;;22.85;9.73;;;;;;;;;;5086887;28;20078;-61
2021/12/29 04:04:52;;;;;;;22.13;9.02;;;;;;;;;;5088144;28;20040;-60
2021/12/29 04:07:18;;;;;;;31.17;10.40;;;;;;;;;;5087899;28;20039;-59
2021/12/29 04:09:44;;;;;;;33.70;10.82;;;;;;;;;;5086681;28;20067;-57
2021/12/29 04:12:10;;;;;;;33.58;10.85;;;;;;;;;;5087698;28;20035;-58
2021/12/29 04:14:37;;;;;;;28.35;10.27;;;;;;;;;;5090400;28;20436;-57
2021/12/29 04:17:09;;;;;;;39.83;9.90;;;;;;;;;;5084854;28;20089;-59
2021/12/29 04:22:20;;;;;;;24.40;10.13;;;;;;;;;;5089218;28;20448;-57
2021/12/29 04:24:47;;;;;;;35.20;11.27;;;;;;;;;;5090101;28;20498;-58
2021/12/29 04:27:13;;;;;;;28.83;12.02;;;;;;;;;;5087850;28;20039;-59
2021/12/29 04:29:39;;;;;;;30.90;10.73;;;;;;;;;;5083246;28;20128;-58
2021/12/29 04:32:05;;;;;;;34.22;11.80;;;;;;;;;;5085815;28;20055;-60
2021/12/29 04:34:31;;;;;;;28.30;11.10;;;;;;;;;;5089238;28;20453;-59
2021/12/29 04:36:57;;;;;;;29.95;11.30;;;;;;;;;;5089690;28;20108;-57
2021/12/29 04:39:23;;;;;;;34.10;12.48;;;;;;;;;;5089516;28;20456;-57
2021/12/29 04:41:49;;;;;;;35.53;13.45;;;;;;;;;;5089023;28;20051;-59
2021/12/29 04:44:15;;;;;;;34.13;13.82;;;;;;;;;;5088919;28;20044;-56
2021/12/29 04:46:45;;;;;;;35.35;12.90;;;;;;;;;;5084242;28;20119;-58
2021/12/29 04:49:13;;;;;;;38.50;13.77;;;;;;;;;;5092218;28;20508;-59
2021/12/29 04:51:47;;;;;;;28.27;12.48;;;;;;;;;;5092665;28;20858;-59
2021/12/29 04:54:13;;;;;;;31.23;13.77;;;;;;;;;;5089251;28;20044;-58
2021/12/29 04:56:39;;;;;;;35.08;13.70;;;;;;;;;;5093173;28;20040;-57
2021/12/29 04:59:06;;;;;;;39.63;13.63;;;;;;;;;;5090667;28;20119;-58
2021/12/29 05:01:32;;;;;;;30.98;12.40;;;;;;;;;;5092535;28;20470;-60
2021/12/29 05:03:58;;;;;;;32.80;12.75;;;;;;;;;;5090983;28;20093;-60
2021/12/29 05:09:09;;;;;;;34.80;13.55;;;;;;;;;;5084987;28;20093;-59
2021/12/29 05:11:35;;;;;;;37.53;13.10;;;;;;;;;;5092558;28;20075;-59
2021/12/29 05:14:01;;;;;;;34.80;12.82;;;;;;;;;;5089249;28;20036;-58
2021/12/29 05:16:28;;;;;;;32.65;13.25;;;;;;;;;;5092046;28;20048;-59
2021/12/29 05:18:56;;;;;;;36.72;12.80;;;;;;;;;;5090488;28;20055;-61
2021/12/29 05:21:22;;;;;;;32.42;11.82;;;;;;;;;;5092687;28;20050;-59
2021/12/29 05:23:48;;;;;;;35.75;12.15;;;;;;;;;;5089690;28;20439;-57
2021/12/29 05:26:14;;;;;;;33.25;11.10;;;;;;;;;;5089576;28;20089;-58
2021/12/29 05:28:40;;;;;;;31.02;10.88;;;;;;;;;;5092266;28;20032;-60
2021/12/29 05:31:06;;;;;;;31.23;11.68;;;;;;;;;;5091888;28;20074;-59
2021/12/29 05:33:32;;;;;;;32.95;13.25;;;;;;;;;;5090857;28;20059;-60
2021/12/29 05:35:59;;;;;;;35.17;13.13;;;;;;;;;;5090797;28;20032;-59
2021/12/29 05:38:25;;;;;;;41.60;12.63;;;;;;;;;;5091527;28;20035;-57
2021/12/29 05:40:52;;;;;;;33.58;13.48;;;;;;;;;;5091271;28;20121;-58
2021/12/29 05:43:18;;;;;;;33.97;12.07;;;;;;;;;;5091467;28;20085;-59
2021/12/29 05:45:44;;;;;;;36.17;12.50;;;;;;;;;;5090195;28;20036;-59
2021/12/29 05:48:10;;;;;;;29.30;11.45;;;;;;;;;;5092402;28;20486;-58
2021/12/29 05:50:37;;;;;;;32.65;11.77;;;;;;;;;;5090239;28;20048;-58
2021/12/29 05:53:03;;;;;;;39.38;11.98;;;;;;;;;;5090398;28;20497;-59
2021/12/29 05:55:30;;;;;;;38.08;11.20;;;;;;;;;;5090003;28;20406;-58
2021/12/29 05:57:56;;;;;;;32.55;10.55;;;;;;;;;;5090081;28;20367;-58
2021/12/29 06:00:23;;;;;;;30.33;10.68;;;;;;;;;;5089279;28;20040;-59
2021/12/29 06:02:50;;;;;;;31.50;11.45;;;;;;;;;;5087948;28;20044;-60
2021/12/29 06:05:16;;;;;;;37.20;11.50;;;;;;;;;;5089656;28;20044;-57
2021/12/29 06:07:42;;;;;;;39.25;11.07;;;;;;;;;;5089475;28;20047;-60
2021/12/29 06:10:09;;;;;;;38.15;11.70;;;;;;;;;;5091211;28;20127;-58
2021/12/29 06:12:36;;;;;;;37.42;11.85;;;;;;;;;;5089195;28;20268;-58
2021/12/29 06:15:03;;;;;;;40.58;10.82;;;;;;;;;;5090720;28;20120;-58
2021/12/29 06:17:29;;;;;;;45.35;12.13;;;;;;;;;;5090761;28;20055;-59
2021/12/29 06:19:56;;;;;;;32.75;10.73;;;;;;;;;;5090096;28;20052;-57
2021/12/29 06:22:23;;;;;;;38.42;11.55;;;;;;;;;;5089389;28;20059;-59
2021/12/29 06:24:52;;;;;;;40.65;10.43;;;;;;;;;;5089638;28;20075;-57
2021/12/29 06:27:19;;;;;;;39.10;10.65;;;;;;;;;;5091707;28;20036;-59
2021/12/29 06:29:45;;;;;;;35.70;11.00;;;;;;;;;;5089489;28;20082;-59
2021/12/29 06:32:11;;;;;;;39.08;10.38;;;;;;;;;;5090665;28;20070;-59
2021/12/29 06:34:37;;;;;;;33.35;9.95;;;;;;;;;;5087102;28;20040;-57
2021/12/29 06:37:12;;;;;;;33.92;9.57;;;;;;;;;;5089952;28;20126;-57
2021/12/29 06:39:38;;;;;;;46.70;10.93;;;;;;;;;;5090694;28;20102;-58
2021/12/29 06:42:04;;;;;;;43.10;10.55;;;;;;;;;;5088851;28;20102;-58
2021/12/29 06:44:31;;;;;;;41.97;10.88;;;;;;;;;;5090176;28;20062;-58
2021/12/29 06:46:57;;;;;;;40.28;10.07;;;;;;;;;;5090099;28;20128;-59
2021/12/29 06:49:23;;;;;;;42.42;10.27;;;;;;;;;;5087201;28;20538;-59
2021/12/29 06:51:50;;;;;;;42.53;10.77;;;;;;;;;;5090085;28;20119;-58
2021/12/29 06:54:16;;;;;;;39.83;10.40;;;;;;;;;;5086404;28;20432;-60
2021/12/29 06:56:42;;;;;;;48.15;11.02;;;;;;;;;;5085807;28;20036;-59
2021/12/29 06:59:08;;;;;;;42.83;11.27;;;;;;;;;;5090057;28;20486;-60
2021/12/29 07:01:34;;;;;;;45.28;11.02;;;;;;;;;;5083621;28;20494;-57
2021/12/29 07:04:00;;;;;;;53.85;11.60;;;;;;;;;;5087754;28;20050;-60
2021/12/29 07:06:26;;;;;;;50.33;10.35;;;;;;;;;;5083296;28;20072;-59
2021/12/29 07:08:52;;;;;;;49.45;10.15;;;;;;;;;;5090119;28;20063;-58
2021/12/29 07:11:18;;;;;;;43.85;11.00;;;;;;;;;;5083136;28;20044;-58
2021/12/29 07:13:44;;;;;;;49.05;11.77;;;;;;;;;;5087740;28;20036;-58
2021/12/29 07:16:11;;;;;;;62.42;12.15;;;;;;;;;;5089662;28;20039;-58
2021/12/29 07:18:37;;;;;;;52.03;11.75;;;;;;;;;;5090288;28;20050;-60
2021/12/29 07:21:03;;;;;;;50.35;10.48;;;;;;;;;;5084870;28;20417;-59
2021/12/29 07:23:30;;;;;;;33.22;9.75;;;;;;;;;;5090244;28;20051;-60
2021/12/29 07:25:56;;;;;;;50.00;10.27;;;;;;;;;;5088237;28;20032;-59
2021/12/29 07:28:22;;;;;;;44.75;9.80;;;;;;;;;;5089905;28;20032;-59
2021/12/29 07:30:48;;;;;;;36.60;10.13;;;;;;;;;;5086340;28;20127;-59
2021/12/29 07:33:14;;;;;;;47.30;10.57;;;;;;;;;;5087585;28;20046;-59
2021/12/29 07:35:40;;;;;;;34.70;9.38;;;;;;;;;;5086086;28;20040;-59
2021/12/29 07:38:06;;;;;;;45.13;9.45;;;;;;;;;;5086390;28;20391;-57
2021/12/29 07:40:34;;;;;;;33.00;8.98;;;;;;;;;;5090327;28;20047;-59
2021/12/29 07:43:01;;;;;;;39.72;10.65;;;;;;;;;;5090309;28;20036;-60
2021/12/29 07:45:27;;;;;;;46.03;9.00;;;;;;;;;;5088718;28;20039;-61
2021/12/29 07:47:54;;;;;;;41.65;8.75;;;;;;;;;;5089074;28;20402;-59
2021/12/29 07:50:20;;;;;;;27.00;8.70;;;;;;;;;;5089773;28;20047;-58
2021/12/29 07:52:48;;;;;;;31.70;7.95;;;;;;;;;;5087479;28;20071;-58
2021/12/29 07:55:18;;;;;;;27.58;8.45;;;;;;;;;;5087104;28;20057;-59
2021/12/29 07:57:44;;;;;;;26.27;7.65;;;;;;;;;;5086277;28;20062;-60
2021/12/29 08:00:10;;;;;;;17.98;6.65;;;;;;;;;;5088478;28;20402;-59
2021/12/29 08:02:36;;;;;;;22.17;6.45;;;;;;;;;;5089321;28;20051;-59
2021/12/29 08:05:07;;;;;;;22.35;6.90;;;;;;;;;;5090171;28;20082;-59
2021/12/29 08:07:33;;;;;;;28.60;6.70;;;;;;;;;;5088532;28;20040;-58
2021/12/29 08:09:59;;;;;;;23.58;6.72;;;;;;;;;;5089217;28;20411;-58
2021/12/29 08:12:25;;;;;;;21.15;7.07;;;;;;;;;;5088273;28;20131;-59
2021/12/29 08:14:51;;;;;;;31.05;7.53;;;;;;;;;;5089817;28;20119;-59
2021/12/29 08:17:17;;;;;;;34.92;7.65;;;;;;;;;;5089138;28;20042;-59
2021/12/29 08:19:44;;;;;;;36.53;8.23;;;;;;;;;;5089720;28;20048;-58
2021/12/29 08:22:10;;;;;;;60.55;8.77;;;;;;;;;;5091785;28;20048;-58
2021/12/29 08:24:36;;;;;;;30.83;7.25;;;;;;;;;;5093649;28;20079;-57
2021/12/29 08:27:03;;;;;;;49.35;8.65;;;;;;;;;;5093358;28;20044;-58
2021/12/29 08:29:29;;;;;;;44.42;7.90;;;;;;;;;;5093467;28;20082;-59
2021/12/29 08:31:57;;;;;;;50.53;7.68;;;;;;;;;;5075138;28;20051;-58
2021/12/29 08:34:23;;;;;;;57.03;7.80;;;;;;;;;;5075416;28;20048;-58
2021/12/29 08:36:49;;;;;;;26.60;7.55;;;;;;;;;;5093505;28;20448;-59
2021/12/29 08:39:15;;;;;;;68.47;8.73;;;;;;;;;;5093502;28;20035;-60
2021/12/29 08:41:41;;;;;;;41.28;7.13;;;;;;;;;;5092360;28;20082;-60
2021/12/29 08:44:07;;;;;;;27.05;7.35;;;;;;;;;;5093388;28;20040;-58
2021/12/29 08:46:33;;;;;;;38.60;7.55;;;;;;;;;;5091616;28;20051;-58
2021/12/29 08:48:59;;;;;;;39.10;7.72;;;;;;;;;;5093505;28;20390;-57
2021/12/29 08:51:25;;;;;;;37.20;8.30;;;;;;;;;;5092562;28;20451;-58
2021/12/29 08:53:52;;;;;;;28.23;7.45;;;;;;;;;;5093608;28;20059;-59
2021/12/29 08:56:18;;;;;;;26.42;7.07;;;;;;;;;;5092865;28;20562;-58
2021/12/29 08:58:45;;;;;;;21.73;7.68;;;;;;;;;;5092697;28;20036;-58
2021/12/29 09:01:12;;;;;;;18.27;7.07;;;;;;;;;;5092757;28;20132;-58
2021/12/29 09:03:38;;;;;;;25.42;7.22;;;;;;;;;;5091208;28;20508;-59
2021/12/29 09:06:04;;;;;;;28.95;8.13;;;;;;;;;;5090040;28;20762;-60
2021/12/29 09:08:30;;;;;;;26.63;7.22;;;;;;;;;;5092282;28;20040;-58
2021/12/29 09:10:56;;;;;;;20.17;8.15;;;;;;;;;;5090922;28;20083;-58
2021/12/29 09:13:22;;;;;;;18.50;7.10;;;;;;;;;;5092709;28;20078;-60
2021/12/29 09:15:56;;;;;;;21.38;7.22;;;;;;;;;;5092052;28;20082;-60
2021/12/29 09:18:23;;;;;;;23.75;7.90;;;;;;;;;;5092173;28;20044;-59
2021/12/29 09:20:49;;;;;;;29.27;9.25;;;;;;;;;;5090899;28;20044;-58
2021/12/29 09:23:15;;;;;;;26.98;7.65;;;;;;;;;;5092512;28;20040;-59
2021/12/29 09:25:43;;;;;;;21.30;7.28;;;;;;;;;;5074354;28;20086;-59
2021/12/29 09:28:11;;;;;;;24.08;7.50;;;;;;;;;;5091555;28;20040;-59
2021/12/29 09:30:38;;;;;;;19.90;7.25;;;;;;;;;;5092859;28;20382;-60
2021/12/29 09:33:05;;;;;;;20.08;7.10;;;;;;;;;;5091014;28;20070;-60
2021/12/29 09:35:31;;;;;;;25.77;7.45;;;;;;;;;;5093061;28;20417;-59
2021/12/29 09:37:57;;;;;;;16.90;6.45;;;;;;;;;;5092756;28;20383;-59
2021/12/29 09:40:24;;;;;;;19.42;6.78;;;;;;;;;;5092784;28;20119;-58
2021/12/29 09:42:51;;;;;;;16.85;6.60;;;;;;;;;;5092805;28;20364;-61
2021/12/29 09:45:17;;;;;;;16.52;6.30;;;;;;;;;;5092891;28;20046;-59
2021/12/29 09:47:44;;;;;;;20.20;6.53;;;;;;;;;;5091505;28;20544;-58
2021/12/29 09:50:11;;;;;;;16.17;5.70;;;;;;;;;;5091384;28;20528;-61
2021/12/29 09:52:38;;;;;;;20.33;6.05;;;;;;;;;;5092592;28;20118;-58
2021/12/29 09:55:08;;;;;;;15.13;5.65;;;;;;;;;;5092243;28;20067;-60
2021/12/29 09:57:35;;;;;;;18.05;6.03;;;;;;;;;;5092596;28;20036;-59
2021/12/29 10:00:02;;;;;;;18.02;4.97;;;;;;;;;;5092354;28;20151;-58
2021/12/29 10:02:28;;;;;;;15.93;5.43;;;;;;;;;;5092269;28;20036;-58
2021/12/29 10:04:56;;;;;;;18.08;5.03;;;;;;;;;;5092297;28;20156;-59
2021/12/29 10:07:22;;;;;;;13.50;5.28;;;;;;;;;;5092362;28;20043;-61
2021/12/29 10:09:49;;;;;;;14.10;4.68;;;;;;;;;;5092260;28;20079;-58
2021/12/29 10:12:19;;;;;;;20.67;4.90;;;;;;;;;;5092319;28;20040;-59
2021/12/29 10:14:48;;;;;;;16.77;5.18;;;;;;;;;;5092267;28;20406;-58
2021/12/29 10:17:15;;;;;;;15.82;4.75;;;;;;;;;;5092066;28;20032;-57
2021/12/29 10:19:41;;;;;;;22.98;6.22;;;;;;;;;;5091703;28;20048;-60
2021/12/29 10:22:07;;;;;;;14.90;5.88;;;;;;;;;;5091621;28;20047;-58
2021/12/29 10:24:34;;;;;;;16.75;5.70;;;;;;;;;;5092234;28;20096;-59
2021/12/29 10:27:00;;;;;;;20.75;5.80;;;;;;;;;;5091797;28;20062;-60
2021/12/29 10:29:30;;;;;;;18.30;5.85;;;;;;;;;;5092006;28;20044;-59
2021/12/29 10:32:03;;;;;;;18.98;5.03;;;;;;;;;;5091579;28;20040;-60
2021/12/29 10:34:30;;;;;;;20.55;6.05;;;;;;;;;;5091709;28;20044;-59
2021/12/29 10:37:00;;;;;;;26.00;5.65;;;;;;;;;;5091603;28;20036;-59
2021/12/29 10:39:29;;;;;;;27.85;5.38;;;;;;;;;;5090474;28;20044;-59
2021/12/29 10:42:02;;;;;;;23.35;5.68;;;;;;;;;;5091646;28;20402;-59
2021/12/29 10:44:28;;;;;;;18.48;5.93;;;;;;;;;;5091480;28;20047;-58
2021/12/29 10:46:56;;;;;;;27.95;6.00;;;;;;;;;;5091360;28;20089;-57
2021/12/29 10:49:23;;;;;;;27.40;6.50;;;;;;;;;;5091404;28;20052;-58
2021/12/29 10:51:49;;;;;;;28.48;5.78;;;;;;;;;;5090147;28;20127;-58
2021/12/29 10:54:19;;;;;;;21.40;5.32;;;;;;;;;;5091293;28;20119;-58
2021/12/29 10:57:05;;;;;;;21.60;4.60;;;;;;;;;;5090218;28;20432;-58
2021/12/29 10:59:34;;;;;;;29.30;4.85;;;;;;;;;;5091310;28;20044;-60
2021/12/29 11:02:00;;;;;;;23.90;5.38;;;;;;;;;;5091117;28;20050;-59
2021/12/29 11:04:27;;;;;;;19.45;4.55;;;;;;;;;;5091574;28;20470;-59
2021/12/29 11:06:56;;;;;;;15.75;4.22;;;;;;;;;;5091309;28;20040;-59
2021/12/29 11:09:27;;;;;;;15.90;4.13;;;;;;;;;;5089203;28;20056;-58
2021/12/29 11:11:53;;;;;;;22.67;4.60;;;;;;;;;;5090972;28;20044;-57
2021/12/29 11:14:22;;;;;;;26.13;4.60;;;;;;;;;;5090504;28;20537;-59
2021/12/29 11:16:53;;;;;;;15.93;3.80;;;;;;;;;;5089710;28;20065;-57
2021/12/29 11:19:20;;;;;;;27.92;4.07;;;;;;;;;;5090777;28;20560;-57
2021/12/29 11:21:46;;;;;;;18.92;4.03;;;;;;;;;;5091108;28;20414;-57
2021/12/29 11:24:12;;;;;;;21.45;3.55;;;;;;;;;;5090779;28;20416;-60
2021/12/29 11:26:38;;;;;;;18.02;4.43;;;;;;;;;;5090949;28;20511;-59
2021/12/29 11:29:05;;;;;;;21.70;4.57;;;;;;;;;;5090674;28;20176;-58
2021/12/29 11:31:38;;;;;;;19.67;3.90;;;;;;;;;;5091006;28;20525;-58
2021/12/29 11:34:15;;;;;;;17.10;4.57;;;;;;;;;;5090757;28;20039;-58
2021/12/29 11:36:41;;;;;;;23.08;4.88;;;;;;;;;;5090822;28;20036;-58
2021/12/29 11:39:08;;;;;;;29.40;4.50;;;;;;;;;;5090502;28;20119;-58
2021/12/29 11:41:34;;;;;;;20.83;4.97;;;;;;;;;;5090622;28;20134;-58
2021/12/29 11:44:00;;;;;;;16.55;5.50;;;;;;;;;;5091124;28;20085;-58
2021/12/29 11:46:26;;;;;;;22.42;4.80;;;;;;;;;;5090735;28;20090;-57
2021/12/29 11:48:53;;;;;;;21.80;4.82;;;;;;;;;;5090779;28;20075;-58
2021/12/29 11:51:27;;;;;;;28.17;5.65;;;;;;;;;;5090337;28;20123;-59
2021/12/29 11:53:58;;;;;;;22.48;4.95;;;;;;;;;;5090908;28;20474;-58
2021/12/29 11:56:24;;;;;;;21.95;5.38;;;;;;;;;;5090029;28;20460;-57
2021/12/29 11:58:51;;;;;;;19.33;5.28;;;;;;;;;;5094929;28;20445;-59
2021/12/29 12:01:19;;;;;;;22.38;5.68;;;;;;;;;;5093360;28;20101;-59
2021/12/29 12:03:53;;;;;;;18.10;5.05;;;;;;;;;;5093575;28;20138;-57
2021/12/29 12:06:26;;;;;;;21.45;5.72;;;;;;;;;;5094297;28;20071;-59
2021/12/29 12:09:09;;;;;;;16.92;5.50;;;;;;;;;;5094923;28;20062;-58
2021/12/29 12:11:35;;;;;;;;;;;8.60;99.90;;;;;;5094611;28;20434;-58
2021/12/29 12:14:02;;;;;;;14.68;5.18;;;;;;;;;;5094501;28;20004;-58
2021/12/29 12:16:28;;;;;;;13.05;4.32;;;;;;;;;;5094223;28;20040;-57
2021/12/29 12:18:58;;;;;;;20.08;5.65;;;;;;;;;;5094301;28;20154;-59
2021/12/29 12:21:30;;;;;;;20.35;6.55;;;;;;;;;;5093930;28;20054;-58
2021/12/29 12:24:14;;;;;;;21.52;6.10;;;;;;;;;;5094486;28;20048;-59
2021/12/29 12:26:57;;;;;;;19.33;5.88;;;;;;;;;;5094292;28;20040;-58
2021/12/29 12:29:25;;;;;;;16.88;5.43;;;;;;;;;;5093708;28;20054;-60
2021/12/29 12:32:00;;;;;;;19.38;5.03;;;;;;;;;;5092710;28;20375;-57
2021/12/29 12:34:26;;;;;;;17.05;5.43;;;;;;;;;;5093829;28;20040;-59
2021/12/29 12:36:52;;;;;;;20.20;5.32;;;;;;;;;;5094035;28;20513;-59
2021/12/29 12:39:19;;;;;;;15.77;6.03;;;;;;;;;;5092475;28;20119;-58
2021/12/29 12:41:48;;;;;;;21.83;6.30;;;;;;;;;;5093823;28;20042;-59
2021/12/29 12:44:15;;;;;;;19.58;6.00;;;;;;;;;;5094072;28;20040;-58
2021/12/29 12:46:51;;;;;;;15.57;5.78;;;;;;;;;;5093994;28;20119;-58
2021/12/29 12:49:22;;;;;;;23.13;5.95;;;;;;;;;;5093813;28;20039;-59
2021/12/29 12:51:55;;;;;;;16.85;6.18;;;;;;;;;;5093638;28;20040;-59
2021/12/29 12:54:22;;;;;;;20.25;8.75;;;;;;;;;;5092115;28;20032;-59
2021/12/29 12:56:49;;;;;;;19.65;7.22;;;;;;;;;;5093779;28;20359;-57
2021/12/29 12:59:15;;;;;;;25.52;9.90;;;;;;;;;;5093555;28;20039;-59
2021/12/29 13:01:45;;;;;;;21.58;8.75;;;;;;;;;;5093232;28;20040;-58
2021/12/29 13:04:15;;;;;;;19.98;9.95;;;;;;;;;;5092638;28;20094;-58
2021/12/29 13:06:42;;;;;;;19.80;8.07;;;;;;;;;;5093158;28;20052;-59
2021/12/29 13:09:09;;;;;;;65.00;12.23;;;;;;;;;;5093555;28;20043;-57
2021/12/29 13:11:36;;;;;;;19.90;7.28;;;;;;;;;;5093420;28;20406;-60
2021/12/29 13:14:04;;;;;;;16.75;8.05;;;;;;;;;;5093674;28;20473;-59
2021/12/29 13:16:30;;;;;;;21.70;8.15;;;;;;;;;;5093144;28;20145;-60
2021/12/29 13:18:57;;;;;;;45.47;10.43;;;;;;;;;;5093185;28;20069;-57
2021/12/29 13:21:25;;;;;;;22.15;8.20;;;;;;;;;;5092883;28;20059;-59
2021/12/29 13:23:58;;;;;;;25.30;10.32;;;8.70;99.90;;;;;;5092904;28;20048;-58
2021/12/29 13:26:24;;;;;;;;;;;8.70;99.90;;;;;;5092308;28;20138;-59
2021/12/29 13:28:50;;;;;;;23.23;9.50;;;;;;;;;;5092833;28;19969;-60
2021/12/29 13:31:20;;;;;;;22.20;9.70;;;;;;;;;;5092992;28;20051;-58
2021/12/29 13:33:50;;;;;;;21.88;9.48;;;;;;;;;;5092617;28;20036;-57
2021/12/29 13:36:17;;;;;;;19.48;8.27;;;;;;;;;;5093107;28;20390;-57
2021/12/29 13:38:44;;;;;;;16.05;8.50;;;;;;;;;;5092612;28;20040;-60
2021/12/29 13:41:12;;;;;;;16.08;8.85;;;;;;;;;;5092933;28;20028;-58
2021/12/29 13:43:43;;;;;;;15.80;8.52;;;;;;;;;;5092411;28;20166;-58
2021/12/29 13:46:14;;;;;;;19.30;9.00;;;;;;;;;;5092743;28;20032;-60
2021/12/29 13:48:41;;;;;;;22.35;10.98;;;;;;;;;;5092280;28;20059;-58
2021/12/29 13:51:09;;;;;;;17.60;9.18;;;;;;;;;;5091578;28;20047;-59
2021/12/29 13:53:37;;;;;;;17.63;9.50;;;;;;;;;;5092512;28;20083;-60
2021/12/29 13:56:14;;;;;;;20.40;9.65;;;;;;;;;;5091460;28;20114;-60
2021/12/29 13:58:41;;;;;;;22.20;9.85;;;;;;;;;;5092248;28;20046;-59
2021/12/29 14:01:08;;;;;;;18.48;9.80;;;;;;;;;;5092578;28;20039;-57
2021/12/29 14:03:34;;;;;;;20.33;10.20;;;;;;;;;;5092516;28;20123;-60
2021/12/29 14:06:02;;;;;;;18.17;10.07;;;;;;;;;;5092157;28;20032;-58
2021/12/29 14:08:30;;;;;;;21.65;8.77;;;;;;;;;;5091048;28;20119;-58
2021/12/29 14:10:58;;;;;;;22.77;9.55;;;;;;;;;;5092044;28;20051;-57
2021/12/29 14:13:25;;;;;;;21.58;10.57;;;;;;;;;;5092136;28;20047;-58
2021/12/29 14:16:00;;;;;;;20.10;10.05;;;;;;;;;;5092008;28;20087;-58
2021/12/29 14:18:28;;;;;;;16.55;9.20;;;;;;;;;;5092273;28;20073;-57
2021/12/29 14:20:55;;;;;;;14.00;10.10;;;;;;;;;;5091252;28;20059;-58
2021/12/29 14:23:32;;;;;;;44.17;11.52;;;;;;;;;;5091891;28;20082;-59
2021/12/29 14:26:09;;;;;;;16.77;9.35;;;;;;;;;;5091690;28;20410;-58
2021/12/29 14:28:35;;;;;;;18.85;9.95;;;;;;;;;;5091910;28;20097;-59
2021/12/29 14:31:04;;;;;;;21.73;10.18;;;;;;;;;;5091651;28;20387;-59
2021/12/29 14:33:43;;;;;;;15.45;10.18;;;;;;;;;;5091824;28;20088;-58